Ayer, MA

8:49 AM EDT on July 01, 2015 (GMT -0400)
Ayer Center | | Change Station
CLOSE
Current Station
Personal Weather Station
Location: Ayer, MA
Elevation: 230 ft
Nearby Weather Stations

Elev 230 ft 42.56 °N, 71.59 °W | Updated 5 seconds ago

Rain
Rain
65.1 °F
Feels Like 65.1 °F
N
0.0
Wind Variable Wind from South
Gusts 0.0 mph

Today
High -- | Low -- °F
--% Chance of Precip.
Yesterday
High -- | Low -- °F
Precip. -- in
5:12 AM 8:27 PM
Full, 100% visible
Pressure 29.81 in
Visibility 3.0 miles
Clouds Overcast 500 ft
Dew Point 65 °F
Humidity 99%
Rainfall 0.72 in
Snow Depth Not available.
UV 1 out of 12
Pollen .90 out of 12
Air Quality Not available.
Flu Activity Not available.
SPECI KFIT 011238Z AUTO 10003KT 3SM RA BR OVC005 19/18 A2981 RMK AO2 TSB04E19 PRESFR P0025 T01890178

More Conditions Fewer Conditions

Pressure 29.81 in
Visibility 3.0 miles
Clouds Overcast 500 ft
Dew Point 65 °F
Humidity 99%
Rainfall 0.72 in
Snow Depth Not available.
UV 1 out of 12
Pollen .90 out of 12
Air Quality Not available.
Flu Activity Not available.
SPECI KFIT 011238Z AUTO 10003KT 3SM RA BR OVC005 19/18 A2981 RMK AO2 TSB04E19 PRESFR P0025 T01890178

More Conditions Fewer Conditions

10-Day Weather Forecast

×

Almanac

Astronomy

Jul. 01, 2015 Rise Set
Actual Time
Civil Twilight
Nautical Twilight
Astronomical Twilight
Moon
Length of Visible Light
Length of Day
Tomorrow will be .
, % of the Moon is Illuminated

Today's Extremes

State Highs State Lows

Community

WunderPhotos

Upload Photos

1,834,187 photos uploaded!

WunderBlogs® & News

Nearby

Air Quality

  Air Quality AQ Index Pollutant
Not available.

Snow Depth

Station Depth Elevation

Earthquake Activity

City Distance Mag. Time & Date
Minimum magnitude displayed is 2.5.

Coastal Water Temperatures

Place Temperature

Stations

Nearby Weather Stations

Station Location Temp. Windchill Dew Point Humidity Wind Precip. Elev Updated Type